sensor_id;sensor_type;location;lat;lon;timestamp;temperature;humidity
52321;DHT22;38261;54.090;13.382;2022-11-15T00:00:37;7.30;99.90
52321;DHT22;38261;54.090;13.382;2022-11-15T00:01:59;7.30;99.90
52321;DHT22;38261;54.090;13.382;2022-11-15T00:03:26;7.30;99.90
52321;DHT22;38261;54.090;13.382;2022-11-15T00:04:48;7.30;99.90
52321;DHT22;38261;54.090;13.382;2022-11-15T00:06:10;7.30;99.90
52321;DHT22;38261;54.090;13.382;2022-11-15T00:07:33;7.30;99.90
52321;DHT22;38261;54.090;13.382;2022-11-15T00:09:15;7.40;99.90
52321;DHT22;38261;54.090;13.382;2022-11-15T00:10:37;7.40;99.90
52321;DHT22;38261;54.090;13.382;2022-11-15T00:11:59;7.40;99.90
52321;DHT22;38261;54.090;13.382;2022-11-15T00:13:21;7.40;99.90
52321;DHT22;38261;54.090;13.382;2022-11-15T00:14:44;7.40;99.90
52321;DHT22;38261;54.090;13.382;2022-11-15T00:16:06;7.40;99.90
52321;DHT22;38261;54.090;13.382;2022-11-15T00:17:28;7.30;99.90
52321;DHT22;38261;54.090;13.382;2022-11-15T00:18:50;7.30;99.90
52321;DHT22;38261;54.090;13.382;2022-11-15T00:20:13;7.40;99.90
52321;DHT22;38261;54.090;13.382;2022-11-15T00:21:35;7.40;99.90
52321;DHT22;38261;54.090;13.382;2022-11-15T00:22:57;7.40;99.90
52321;DHT22;38261;54.090;13.382;2022-11-15T00:24:19;7.40;99.90
52321;DHT22;38261;54.090;13.382;2022-11-15T00:25:41;7.40;99.90
52321;DHT22;38261;54.090;13.382;2022-11-15T00:27:03;7.40;99.90
52321;DHT22;38261;54.090;13.382;2022-11-15T00:28:29;7.40;99.90
52321;DHT22;38261;54.090;13.382;2022-11-15T00:29:51;7.40;99.90
52321;DHT22;38261;54.090;13.382;2022-11-15T00:31:14;7.40;99.90
52321;DHT22;38261;54.090;13.382;2022-11-15T00:32:36;7.40;99.90
52321;DHT22;38261;54.090;13.382;2022-11-15T00:33:58;7.40;99.90
52321;DHT22;38261;54.090;13.382;2022-11-15T00:35:20;7.40;99.90
52321;DHT22;38261;54.090;13.382;2022-11-15T00:36:43;7.40;99.90
52321;DHT22;38261;54.090;13.382;2022-11-15T00:38:05;7.40;99.90
52321;DHT22;38261;54.090;13.382;2022-11-15T00:39:27;7.40;99.90
52321;DHT22;38261;54.090;13.382;2022-11-15T00:40:49;7.40;99.90
52321;DHT22;38261;54.090;13.382;2022-11-15T00:42:11;7.40;99.90
52321;DHT22;38261;54.090;13.382;2022-11-15T00:43:33;7.40;99.90
52321;DHT22;38261;54.090;13.382;2022-11-15T00:44:56;7.40;99.90
52321;DHT22;38261;54.090;13.382;2022-11-15T00:46:18;7.50;99.90
52321;DHT22;38261;54.090;13.382;2022-11-15T00:47:40;7.40;99.90
52321;DHT22;38261;54.090;13.382;2022-11-15T00:49:02;7.40;99.90
52321;DHT22;38261;54.090;13.382;2022-11-15T00:50:24;7.40;99.90
52321;DHT22;38261;54.090;13.382;2022-11-15T00:51:46;7.40;99.90
52321;DHT22;38261;54.090;13.382;2022-11-15T00:53:09;7.40;99.90
52321;DHT22;38261;54.090;13.382;2022-11-15T00:54:32;7.40;99.90
52321;DHT22;38261;54.090;13.382;2022-11-15T00:55:54;7.40;99.90
52321;DHT22;38261;54.090;13.382;2022-11-15T00:57:16;7.40;99.90
52321;DHT22;38261;54.090;13.382;2022-11-15T00:58:38;7.40;99.90
52321;DHT22;38261;54.090;13.382;2022-11-15T01:00:00;7.40;99.90
52321;DHT22;38261;54.090;13.382;2022-11-15T01:01:23;7.40;99.90
52321;DHT22;38261;54.090;13.382;2022-11-15T01:02:45;7.40;99.90
52321;DHT22;38261;54.090;13.382;2022-11-15T01:04:07;7.40;99.90
52321;DHT22;38261;54.090;13.382;2022-11-15T01:05:29;7.40;99.90
52321;DHT22;38261;54.090;13.382;2022-11-15T01:06:51;7.40;99.90
52321;DHT22;38261;54.090;13.382;2022-11-15T01:08:15;7.40;99.90
52321;DHT22;38261;54.090;13.382;2022-11-15T01:09:37;7.50;99.90
52321;DHT22;38261;54.090;13.382;2022-11-15T01:11:08;7.40;99.90
52321;DHT22;38261;54.090;13.382;2022-11-15T01:12:30;7.50;99.90
52321;DHT22;38261;54.090;13.382;2022-11-15T01:13:52;7.50;99.90
52321;DHT22;38261;54.090;13.382;2022-11-15T01:15:16;7.50;99.90
52321;DHT22;38261;54.090;13.382;2022-11-15T01:16:38;7.50;99.90
52321;DHT22;38261;54.090;13.382;2022-11-15T01:18:00;7.50;99.90
52321;DHT22;38261;54.090;13.382;2022-11-15T01:19:22;7.50;99.90
52321;DHT22;38261;54.090;13.382;2022-11-15T01:20:44;7.50;99.90
52321;DHT22;38261;54.090;13.382;2022-11-15T01:22:07;7.50;99.90
52321;DHT22;38261;54.090;13.382;2022-11-15T01:23:29;7.40;99.90
52321;DHT22;38261;54.090;13.382;2022-11-15T01:24:51;7.40;99.90
52321;DHT22;38261;54.090;13.382;2022-11-15T01:26:14;7.40;99.90
52321;DHT22;38261;54.090;13.382;2022-11-15T01:27:37;7.40;99.90
52321;DHT22;38261;54.090;13.382;2022-11-15T01:28:59;7.40;99.90
52321;DHT22;38261;54.090;13.382;2022-11-15T01:30:21;7.40;99.90
52321;DHT22;38261;54.090;13.382;2022-11-15T01:31:43;7.40;99.90
52321;DHT22;38261;54.090;13.382;2022-11-15T01:33:05;7.40;99.90
52321;DHT22;38261;54.090;13.382;2022-11-15T01:34:27;7.40;99.90
52321;DHT22;38261;54.090;13.382;2022-11-15T01:35:49;7.40;99.90
52321;DHT22;38261;54.090;13.382;2022-11-15T01:37:11;7.40;99.90
52321;DHT22;38261;54.090;13.382;2022-11-15T01:38:34;7.40;99.90
52321;DHT22;38261;54.090;13.382;2022-11-15T01:39:56;7.40;99.90
52321;DHT22;38261;54.090;13.382;2022-11-15T01:41:21;7.40;99.90
52321;DHT22;38261;54.090;13.382;2022-11-15T01:42:44;7.30;99.90
52321;DHT22;38261;54.090;13.382;2022-11-15T01:46:08;7.30;99.90
52321;DHT22;38261;54.090;13.382;2022-11-15T01:47:41;7.30;99.90
52321;DHT22;38261;54.090;13.382;2022-11-15T01:49:13;7.30;99.90
52321;DHT22;38261;54.090;13.382;2022-11-15T01:50:36;7.30;99.90
52321;DHT22;38261;54.090;13.382;2022-11-15T01:51:59;7.30;99.90
52321;DHT22;38261;54.090;13.382;2022-11-15T01:53:24;7.30;99.90
52321;DHT22;38261;54.090;13.382;2022-11-15T01:54:50;7.30;99.90
52321;DHT22;38261;54.090;13.382;2022-11-15T01:56:21;7.30;99.90
52321;DHT22;38261;54.090;13.382;2022-11-15T01:57:46;7.30;99.90
52321;DHT22;38261;54.090;13.382;2022-11-15T01:59:09;7.30;99.90
52321;DHT22;38261;54.090;13.382;2022-11-15T02:00:31;7.30;99.90
52321;DHT22;38261;54.090;13.382;2022-11-15T02:01:54;7.30;99.90
52321;DHT22;38261;54.090;13.382;2022-11-15T02:03:16;7.30;99.90
52321;DHT22;38261;54.090;13.382;2022-11-15T02:04:46;7.30;99.90
52321;DHT22;38261;54.090;13.382;2022-11-15T02:06:09;7.30;99.90
52321;DHT22;38261;54.090;13.382;2022-11-15T02:07:32;7.30;99.90
52321;DHT22;38261;54.090;13.382;2022-11-15T02:08:56;7.30;99.90
52321;DHT22;38261;54.090;13.382;2022-11-15T02:10:21;7.30;99.90
52321;DHT22;38261;54.090;13.382;2022-11-15T02:11:44;7.30;99.90
52321;DHT22;38261;54.090;13.382;2022-11-15T02:13:07;7.30;99.90
52321;DHT22;38261;54.090;13.382;2022-11-15T02:14:30;7.30;99.90
52321;DHT22;38261;54.090;13.382;2022-11-15T02:17:31;7.30;99.90
52321;DHT22;38261;54.090;13.382;2022-11-15T02:19:13;7.30;99.90
52321;DHT22;38261;54.090;13.382;2022-11-15T02:24:16;7.20;99.90
52321;DHT22;38261;54.090;13.382;2022-11-15T02:27:42;7.20;99.90
52321;DHT22;38261;54.090;13.382;2022-11-15T02:31:05;7.20;99.90
52321;DHT22;38261;54.090;13.382;2022-11-15T02:32:58;7.20;99.90
52321;DHT22;38261;54.090;13.382;2022-11-15T02:34:37;7.20;99.90
52321;DHT22;38261;54.090;13.382;2022-11-15T02:37:40;7.20;99.90
52321;DHT22;38261;54.090;13.382;2022-11-15T02:39:15;7.20;99.90
52321;DHT22;38261;54.090;13.382;2022-11-15T02:42:23;7.20;99.90
52321;DHT22;38261;54.090;13.382;2022-11-15T02:45:37;7.10;99.90
52321;DHT22;38261;54.090;13.382;2022-11-15T02:47:04;7.10;99.90
52321;DHT22;38261;54.090;13.382;2022-11-15T02:48:35;7.10;99.90
52321;DHT22;38261;54.090;13.382;2022-11-15T02:50:00;7.20;99.90
52321;DHT22;38261;54.090;13.382;2022-11-15T02:51:23;7.10;99.90
52321;DHT22;38261;54.090;13.382;2022-11-15T02:52:47;7.10;99.90
52321;DHT22;38261;54.090;13.382;2022-11-15T02:54:18;7.10;99.90
52321;DHT22;38261;54.090;13.382;2022-11-15T02:55:45;7.10;99.90
52321;DHT22;38261;54.090;13.382;2022-11-15T02:57:15;7.10;99.90
52321;DHT22;38261;54.090;13.382;2022-11-15T03:00:20;7.20;99.90
52321;DHT22;38261;54.090;13.382;2022-11-15T03:02:05;7.20;99.90
52321;DHT22;38261;54.090;13.382;2022-11-15T03:03:46;7.20;99.90
52321;DHT22;38261;54.090;13.382;2022-11-15T03:05:41;7.20;99.90
52321;DHT22;38261;54.090;13.382;2022-11-15T03:07:15;7.20;99.90
52321;DHT22;38261;54.090;13.382;2022-11-15T03:10:24;7.20;99.90
52321;DHT22;38261;54.090;13.382;2022-11-15T03:11:52;7.20;99.90
52321;DHT22;38261;54.090;13.382;2022-11-15T03:13:29;7.20;99.90
52321;DHT22;38261;54.090;13.382;2022-11-15T03:15:06;7.20;99.90
52321;DHT22;38261;54.090;13.382;2022-11-15T03:18:06;7.20;99.90
52321;DHT22;38261;54.090;13.382;2022-11-15T03:19:34;7.20;99.90
52321;DHT22;38261;54.090;13.382;2022-11-15T03:21:02;7.20;99.90
52321;DHT22;38261;54.090;13.382;2022-11-15T03:22:28;7.10;99.90
52321;DHT22;38261;54.090;13.382;2022-11-15T03:23:52;7.20;99.90
52321;DHT22;38261;54.090;13.382;2022-11-15T03:25:18;7.20;99.90
52321;DHT22;38261;54.090;13.382;2022-11-15T03:26:43;7.20;99.90
52321;DHT22;38261;54.090;13.382;2022-11-15T03:28:09;7.20;99.90
52321;DHT22;38261;54.090;13.382;2022-11-15T03:29:37;7.20;99.90
52321;DHT22;38261;54.090;13.382;2022-11-15T03:31:01;7.20;99.90
52321;DHT22;38261;54.090;13.382;2022-11-15T03:32:52;7.20;99.90
52321;DHT22;38261;54.090;13.382;2022-11-15T03:34:32;7.20;99.90
52321;DHT22;38261;54.090;13.382;2022-11-15T03:35:56;7.20;99.90
52321;DHT22;38261;54.090;13.382;2022-11-15T03:37:22;7.20;99.90
52321;DHT22;38261;54.090;13.382;2022-11-15T03:38:46;7.20;99.90
52321;DHT22;38261;54.090;13.382;2022-11-15T03:40:09;7.20;99.90
52321;DHT22;38261;54.090;13.382;2022-11-15T03:41:39;7.20;99.90
52321;DHT22;38261;54.090;13.382;2022-11-15T03:43:09;7.20;99.90
52321;DHT22;38261;54.090;13.382;2022-11-15T03:48:05;7.20;99.90
52321;DHT22;38261;54.090;13.382;2022-11-15T03:49:35;7.20;99.90
52321;DHT22;38261;54.090;13.382;2022-11-15T03:50:58;7.20;99.90
52321;DHT22;38261;54.090;13.382;2022-11-15T03:52:21;7.20;99.90
52321;DHT22;38261;54.090;13.382;2022-11-15T03:53:43;7.20;99.90
52321;DHT22;38261;54.090;13.382;2022-11-15T03:55:08;7.20;99.90
52321;DHT22;38261;54.090;13.382;2022-11-15T03:56:31;7.20;99.90
52321;DHT22;38261;54.090;13.382;2022-11-15T03:57:56;7.20;99.90
52321;DHT22;38261;54.090;13.382;2022-11-15T03:59:19;7.20;99.90
52321;DHT22;38261;54.090;13.382;2022-11-15T04:00:42;7.20;99.90
52321;DHT22;38261;54.090;13.382;2022-11-15T04:02:04;7.20;99.90
52321;DHT22;38261;54.090;13.382;2022-11-15T04:03:26;7.20;99.90
52321;DHT22;38261;54.090;13.382;2022-11-15T04:04:49;7.20;99.90
52321;DHT22;38261;54.090;13.382;2022-11-15T04:06:11;7.20;99.90
52321;DHT22;38261;54.090;13.382;2022-11-15T04:07:33;7.20;99.90
52321;DHT22;38261;54.090;13.382;2022-11-15T04:08:55;7.20;99.90
52321;DHT22;38261;54.090;13.382;2022-11-15T04:10:17;7.20;99.90
52321;DHT22;38261;54.090;13.382;2022-11-15T04:11:40;7.20;99.90
52321;DHT22;38261;54.090;13.382;2022-11-15T04:13:02;7.10;99.90
52321;DHT22;38261;54.090;13.382;2022-11-15T04:14:25;7.10;99.90
52321;DHT22;38261;54.090;13.382;2022-11-15T04:15:47;7.20;99.90
52321;DHT22;38261;54.090;13.382;2022-11-15T04:17:09;7.10;99.90
52321;DHT22;38261;54.090;13.382;2022-11-15T04:18:31;7.10;99.90
52321;DHT22;38261;54.090;13.382;2022-11-15T04:19:53;7.10;99.90
52321;DHT22;38261;54.090;13.382;2022-11-15T04:21:34;7.10;99.90
52321;DHT22;38261;54.090;13.382;2022-11-15T04:23:19;7.10;99.90
52321;DHT22;38261;54.090;13.382;2022-11-15T04:25:01;7.10;99.90
52321;DHT22;38261;54.090;13.382;2022-11-15T04:26:23;7.10;99.90
52321;DHT22;38261;54.090;13.382;2022-11-15T04:27:45;7.10;99.90
52321;DHT22;38261;54.090;13.382;2022-11-15T04:29:07;7.10;99.90
52321;DHT22;38261;54.090;13.382;2022-11-15T04:30:56;7.10;99.90
52321;DHT22;38261;54.090;13.382;2022-11-15T04:32:18;7.10;99.90
52321;DHT22;38261;54.090;13.382;2022-11-15T04:33:40;7.10;99.90
52321;DHT22;38261;54.090;13.382;2022-11-15T04:35:02;7.10;99.90
52321;DHT22;38261;54.090;13.382;2022-11-15T04:36:25;7.10;99.90
52321;DHT22;38261;54.090;13.382;2022-11-15T04:38:07;7.10;99.90
52321;DHT22;38261;54.090;13.382;2022-11-15T04:39:29;7.10;99.90
52321;DHT22;38261;54.090;13.382;2022-11-15T04:40:51;7.10;99.90
52321;DHT22;38261;54.090;13.382;2022-11-15T04:42:14;7.00;99.90
52321;DHT22;38261;54.090;13.382;2022-11-15T04:43:36;7.00;99.90
52321;DHT22;38261;54.090;13.382;2022-11-15T04:44:58;7.00;99.90
52321;DHT22;38261;54.090;13.382;2022-11-15T04:46:20;7.00;99.90
52321;DHT22;38261;54.090;13.382;2022-11-15T04:47:44;7.00;99.90
52321;DHT22;38261;54.090;13.382;2022-11-15T04:49:06;7.10;99.90
52321;DHT22;38261;54.090;13.382;2022-11-15T04:50:29;7.00;99.90
52321;DHT22;38261;54.090;13.382;2022-11-15T04:51:51;7.00;99.90
52321;DHT22;38261;54.090;13.382;2022-11-15T04:53:13;7.00;99.90
52321;DHT22;38261;54.090;13.382;2022-11-15T04:54:35;7.10;99.90
52321;DHT22;38261;54.090;13.382;2022-11-15T04:55:57;7.10;99.90
52321;DHT22;38261;54.090;13.382;2022-11-15T04:57:20;7.10;99.90
52321;DHT22;38261;54.090;13.382;2022-11-15T04:58:42;7.10;99.90
52321;DHT22;38261;54.090;13.382;2022-11-15T05:00:07;7.10;99.90
52321;DHT22;38261;54.090;13.382;2022-11-15T05:01:30;7.10;99.90
52321;DHT22;38261;54.090;13.382;2022-11-15T05:02:52;7.00;99.90
52321;DHT22;38261;54.090;13.382;2022-11-15T05:04:33;7.10;99.90
52321;DHT22;38261;54.090;13.382;2022-11-15T05:05:55;7.00;99.90
52321;DHT22;38261;54.090;13.382;2022-11-15T05:07:18;7.10;99.90
52321;DHT22;38261;54.090;13.382;2022-11-15T05:08:41;7.10;99.90
52321;DHT22;38261;54.090;13.382;2022-11-15T05:10:03;7.10;99.90
52321;DHT22;38261;54.090;13.382;2022-11-15T05:11:25;7.10;99.90
52321;DHT22;38261;54.090;13.382;2022-11-15T05:12:49;7.10;99.90
52321;DHT22;38261;54.090;13.382;2022-11-15T05:14:11;7.10;99.90
52321;DHT22;38261;54.090;13.382;2022-11-15T05:15:33;7.10;99.90
52321;DHT22;38261;54.090;13.382;2022-11-15T05:16:55;7.10;99.90
52321;DHT22;38261;54.090;13.382;2022-11-15T05:18:17;7.10;99.90
52321;DHT22;38261;54.090;13.382;2022-11-15T05:19:44;7.10;99.90
52321;DHT22;38261;54.090;13.382;2022-11-15T05:21:09;7.10;99.90
52321;DHT22;38261;54.090;13.382;2022-11-15T05:22:31;7.10;99.90
52321;DHT22;38261;54.090;13.382;2022-11-15T05:23:53;7.10;99.90
52321;DHT22;38261;54.090;13.382;2022-11-15T05:25:15;7.10;99.90
52321;DHT22;38261;54.090;13.382;2022-11-15T05:26:38;7.10;99.90
52321;DHT22;38261;54.090;13.382;2022-11-15T05:28:00;7.10;99.90
52321;DHT22;38261;54.090;13.382;2022-11-15T05:29:22;7.10;99.90
52321;DHT22;38261;54.090;13.382;2022-11-15T05:30:44;7.10;99.90
52321;DHT22;38261;54.090;13.382;2022-11-15T05:32:08;7.10;99.90
52321;DHT22;38261;54.090;13.382;2022-11-15T05:33:31;7.10;99.90
52321;DHT22;38261;54.090;13.382;2022-11-15T05:34:54;7.10;99.90
52321;DHT22;38261;54.090;13.382;2022-11-15T05:36:18;7.10;99.90
52321;DHT22;38261;54.090;13.382;2022-11-15T05:37:42;7.10;99.90
52321;DHT22;38261;54.090;13.382;2022-11-15T05:39:06;7.10;99.90
52321;DHT22;38261;54.090;13.382;2022-11-15T05:40:31;7.10;99.90
52321;DHT22;38261;54.090;13.382;2022-11-15T05:41:57;7.10;99.90
52321;DHT22;38261;54.090;13.382;2022-11-15T05:43:21;7.10;99.90
52321;DHT22;38261;54.090;13.382;2022-11-15T05:44:47;7.10;99.90
52321;DHT22;38261;54.090;13.382;2022-11-15T05:46:11;7.10;99.90
52321;DHT22;38261;54.090;13.382;2022-11-15T05:47:35;7.10;99.90
52321;DHT22;38261;54.090;13.382;2022-11-15T05:48:58;7.10;99.90
52321;DHT22;38261;54.090;13.382;2022-11-15T05:50:20;7.20;99.90
52321;DHT22;38261;54.090;13.382;2022-11-15T05:51:44;7.20;99.90
52321;DHT22;38261;54.090;13.382;2022-11-15T05:53:07;7.20;99.90
52321;DHT22;38261;54.090;13.382;2022-11-15T05:54:30;7.20;99.90
52321;DHT22;38261;54.090;13.382;2022-11-15T05:55:53;7.20;99.90
52321;DHT22;38261;54.090;13.382;2022-11-15T05:57:16;7.10;99.90
52321;DHT22;38261;54.090;13.382;2022-11-15T05:58:38;7.10;99.90
52321;DHT22;38261;54.090;13.382;2022-11-15T06:00:01;7.10;99.90
52321;DHT22;38261;54.090;13.382;2022-11-15T06:01:26;7.20;99.90
52321;DHT22;38261;54.090;13.382;2022-11-15T06:02:49;7.20;99.90
52321;DHT22;38261;54.090;13.382;2022-11-15T06:04:11;7.10;99.90
52321;DHT22;38261;54.090;13.382;2022-11-15T06:05:33;7.20;99.90
52321;DHT22;38261;54.090;13.382;2022-11-15T06:06:58;7.20;99.90
52321;DHT22;38261;54.090;13.382;2022-11-15T06:08:20;7.20;99.90
52321;DHT22;38261;54.090;13.382;2022-11-15T06:09:42;7.20;99.90
52321;DHT22;38261;54.090;13.382;2022-11-15T06:11:06;7.20;99.90
52321;DHT22;38261;54.090;13.382;2022-11-15T06:12:28;7.20;99.90
52321;DHT22;38261;54.090;13.382;2022-11-15T06:13:51;7.20;99.90
52321;DHT22;38261;54.090;13.382;2022-11-15T06:15:13;7.20;99.90
52321;DHT22;38261;54.090;13.382;2022-11-15T06:16:35;7.20;99.90
52321;DHT22;38261;54.090;13.382;2022-11-15T06:17:57;7.20;99.90
52321;DHT22;38261;54.090;13.382;2022-11-15T06:19:20;7.20;99.90
52321;DHT22;38261;54.090;13.382;2022-11-15T06:20:42;7.20;99.90
52321;DHT22;38261;54.090;13.382;2022-11-15T06:22:04;7.20;99.90
52321;DHT22;38261;54.090;13.382;2022-11-15T06:23:27;7.20;99.90
52321;DHT22;38261;54.090;13.382;2022-11-15T06:24:49;7.20;99.90
52321;DHT22;38261;54.090;13.382;2022-11-15T06:26:11;7.20;99.90
52321;DHT22;38261;54.090;13.382;2022-11-15T06:27:34;7.20;99.90
52321;DHT22;38261;54.090;13.382;2022-11-15T06:28:56;7.20;99.90
52321;DHT22;38261;54.090;13.382;2022-11-15T06:30:18;7.10;99.90
52321;DHT22;38261;54.090;13.382;2022-11-15T06:31:41;7.10;99.90
52321;DHT22;38261;54.090;13.382;2022-11-15T06:33:04;7.10;99.90
52321;DHT22;38261;54.090;13.382;2022-11-15T06:34:27;7.20;99.90
52321;DHT22;38261;54.090;13.382;2022-11-15T06:35:49;7.10;99.90
52321;DHT22;38261;54.090;13.382;2022-11-15T06:37:11;7.20;99.90
52321;DHT22;38261;54.090;13.382;2022-11-15T06:38:33;7.20;99.90
52321;DHT22;38261;54.090;13.382;2022-11-15T06:39:56;7.20;99.90
52321;DHT22;38261;54.090;13.382;2022-11-15T06:41:18;7.20;99.90
52321;DHT22;38261;54.090;13.382;2022-11-15T06:42:40;7.20;99.90
52321;DHT22;38261;54.090;13.382;2022-11-15T06:44:03;7.20;99.90
52321;DHT22;38261;54.090;13.382;2022-11-15T06:45:25;7.20;99.90
52321;DHT22;38261;54.090;13.382;2022-11-15T06:46:47;7.20;99.90
52321;DHT22;38261;54.090;13.382;2022-11-15T06:48:10;7.20;99.90
52321;DHT22;38261;54.090;13.382;2022-11-15T06:49:32;7.20;99.90
52321;DHT22;38261;54.090;13.382;2022-11-15T06:50:55;7.20;99.90
52321;DHT22;38261;54.090;13.382;2022-11-15T06:52:17;7.20;99.90
52321;DHT22;38261;54.090;13.382;2022-11-15T06:53:41;7.20;99.90
52321;DHT22;38261;54.090;13.382;2022-11-15T06:55:03;7.20;99.90
52321;DHT22;38261;54.090;13.382;2022-11-15T06:56:26;7.20;99.90
52321;DHT22;38261;54.090;13.382;2022-11-15T06:57:51;7.20;99.90
52321;DHT22;38261;54.090;13.382;2022-11-15T06:59:14;7.20;99.90
52321;DHT22;38261;54.090;13.382;2022-11-15T07:00:36;7.20;99.90
52321;DHT22;38261;54.090;13.382;2022-11-15T07:01:58;7.20;99.90
52321;DHT22;38261;54.090;13.382;2022-11-15T07:03:20;7.20;99.90
52321;DHT22;38261;54.090;13.382;2022-11-15T07:04:43;7.20;99.90
52321;DHT22;38261;54.090;13.382;2022-11-15T07:06:05;7.30;99.90
52321;DHT22;38261;54.090;13.382;2022-11-15T07:07:28;7.30;99.90
52321;DHT22;38261;54.090;13.382;2022-11-15T07:08:51;7.30;99.90
52321;DHT22;38261;54.090;13.382;2022-11-15T07:10:13;7.30;99.90
52321;DHT22;38261;54.090;13.382;2022-11-15T07:11:35;7.30;99.90
52321;DHT22;38261;54.090;13.382;2022-11-15T07:12:57;7.30;99.90
52321;DHT22;38261;54.090;13.382;2022-11-15T07:14:19;7.30;99.90
52321;DHT22;38261;54.090;13.382;2022-11-15T07:15:41;7.30;99.90
52321;DHT22;38261;54.090;13.382;2022-11-15T07:17:05;7.30;99.90
52321;DHT22;38261;54.090;13.382;2022-11-15T07:18:27;7.30;99.90
52321;DHT22;38261;54.090;13.382;2022-11-15T07:19:49;7.30;99.90
52321;DHT22;38261;54.090;13.382;2022-11-15T07:21:11;7.40;99.90
52321;DHT22;38261;54.090;13.382;2022-11-15T07:22:34;7.40;99.90
52321;DHT22;38261;54.090;13.382;2022-11-15T07:23:56;7.40;99.90
52321;DHT22;38261;54.090;13.382;2022-11-15T07:25:18;7.40;99.90
52321;DHT22;38261;54.090;13.382;2022-11-15T07:26:41;7.40;99.90
52321;DHT22;38261;54.090;13.382;2022-11-15T07:28:03;7.40;99.90
52321;DHT22;38261;54.090;13.382;2022-11-15T07:29:26;7.40;99.90
52321;DHT22;38261;54.090;13.382;2022-11-15T07:30:48;7.40;99.90
52321;DHT22;38261;54.090;13.382;2022-11-15T07:32:10;7.40;99.90
52321;DHT22;38261;54.090;13.382;2022-11-15T07:33:32;7.40;99.90
52321;DHT22;38261;54.090;13.382;2022-11-15T07:34:55;7.50;99.90
52321;DHT22;38261;54.090;13.382;2022-11-15T07:36:17;7.50;99.90
52321;DHT22;38261;54.090;13.382;2022-11-15T07:37:39;7.50;99.90
52321;DHT22;38261;54.090;13.382;2022-11-15T07:39:02;7.50;99.90
52321;DHT22;38261;54.090;13.382;2022-11-15T07:40:25;7.40;99.90
52321;DHT22;38261;54.090;13.382;2022-11-15T07:41:48;7.40;99.90
52321;DHT22;38261;54.090;13.382;2022-11-15T07:43:11;7.40;99.90
52321;DHT22;38261;54.090;13.382;2022-11-15T07:44:33;7.40;99.90
52321;DHT22;38261;54.090;13.382;2022-11-15T07:45:56;7.40;99.90
52321;DHT22;38261;54.090;13.382;2022-11-15T07:47:20;7.40;99.90
52321;DHT22;38261;54.090;13.382;2022-11-15T07:48:42;7.50;99.90
52321;DHT22;38261;54.090;13.382;2022-11-15T07:50:06;7.40;99.90
52321;DHT22;38261;54.090;13.382;2022-11-15T07:51:28;7.50;99.90
52321;DHT22;38261;54.090;13.382;2022-11-15T07:52:57;7.50;99.90
52321;DHT22;38261;54.090;13.382;2022-11-15T07:54:20;7.50;99.90
52321;DHT22;38261;54.090;13.382;2022-11-15T07:55:42;7.50;99.90
52321;DHT22;38261;54.090;13.382;2022-11-15T07:57:04;7.60;99.90
52321;DHT22;38261;54.090;13.382;2022-11-15T07:58:28;7.60;99.90
52321;DHT22;38261;54.090;13.382;2022-11-15T07:59:51;7.60;99.90
52321;DHT22;38261;54.090;13.382;2022-11-15T08:01:13;7.60;99.90
52321;DHT22;38261;54.090;13.382;2022-11-15T08:02:35;7.60;99.90
52321;DHT22;38261;54.090;13.382;2022-11-15T08:03:57;7.60;99.90
52321;DHT22;38261;54.090;13.382;2022-11-15T08:05:19;7.70;99.90
52321;DHT22;38261;54.090;13.382;2022-11-15T08:06:41;7.70;99.90
52321;DHT22;38261;54.090;13.382;2022-11-15T08:08:04;7.60;99.90
52321;DHT22;38261;54.090;13.382;2022-11-15T08:09:26;7.70;99.90
52321;DHT22;38261;54.090;13.382;2022-11-15T08:10:49;7.70;99.90
52321;DHT22;38261;54.090;13.382;2022-11-15T08:12:11;7.70;99.90
52321;DHT22;38261;54.090;13.382;2022-11-15T08:13:33;7.70;99.90
52321;DHT22;38261;54.090;13.382;2022-11-15T08:14:55;7.70;99.90
52321;DHT22;38261;54.090;13.382;2022-11-15T08:16:18;7.70;99.90
52321;DHT22;38261;54.090;13.382;2022-11-15T08:17:40;7.70;99.90
52321;DHT22;38261;54.090;13.382;2022-11-15T08:19:02;7.70;99.90
52321;DHT22;38261;54.090;13.382;2022-11-15T08:20:25;7.70;99.90
52321;DHT22;38261;54.090;13.382;2022-11-15T08:21:48;7.80;99.90
52321;DHT22;38261;54.090;13.382;2022-11-15T08:23:11;7.80;99.90
52321;DHT22;38261;54.090;13.382;2022-11-15T08:24:34;7.80;99.90
52321;DHT22;38261;54.090;13.382;2022-11-15T08:26:01;7.80;99.90
52321;DHT22;38261;54.090;13.382;2022-11-15T08:27:24;7.80;99.90
52321;DHT22;38261;54.090;13.382;2022-11-15T08:28:46;7.90;99.90
52321;DHT22;38261;54.090;13.382;2022-11-15T08:30:09;7.90;99.90
52321;DHT22;38261;54.090;13.382;2022-11-15T08:31:31;7.90;99.90
52321;DHT22;38261;54.090;13.382;2022-11-15T08:32:56;7.90;99.90
52321;DHT22;38261;54.090;13.382;2022-11-15T08:34:19;7.90;99.90
52321;DHT22;38261;54.090;13.382;2022-11-15T08:35:42;7.90;99.90
52321;DHT22;38261;54.090;13.382;2022-11-15T08:37:05;8.00;99.90
52321;DHT22;38261;54.090;13.382;2022-11-15T08:38:27;7.90;99.90
52321;DHT22;38261;54.090;13.382;2022-11-15T08:39:51;8.00;99.90
52321;DHT22;38261;54.090;13.382;2022-11-15T08:41:29;8.00;99.90
52321;DHT22;38261;54.090;13.382;2022-11-15T08:42:52;8.00;99.90
52321;DHT22;38261;54.090;13.382;2022-11-15T08:44:15;8.00;99.90
52321;DHT22;38261;54.090;13.382;2022-11-15T08:45:37;8.00;99.90
52321;DHT22;38261;54.090;13.382;2022-11-15T08:46:59;8.10;99.90
52321;DHT22;38261;54.090;13.382;2022-11-15T08:48:21;8.10;99.90
52321;DHT22;38261;54.090;13.382;2022-11-15T08:49:43;8.10;99.90
52321;DHT22;38261;54.090;13.382;2022-11-15T08:51:06;8.10;99.90
52321;DHT22;38261;54.090;13.382;2022-11-15T08:52:28;8.00;99.90
52321;DHT22;38261;54.090;13.382;2022-11-15T08:53:50;8.00;99.90
52321;DHT22;38261;54.090;13.382;2022-11-15T08:55:12;8.10;99.90
52321;DHT22;38261;54.090;13.382;2022-11-15T08:56:38;8.10;99.90
52321;DHT22;38261;54.090;13.382;2022-11-15T08:58:00;8.10;99.90
52321;DHT22;38261;54.090;13.382;2022-11-15T08:59:22;8.20;99.90
52321;DHT22;38261;54.090;13.382;2022-11-15T09:00:44;8.20;99.90
52321;DHT22;38261;54.090;13.382;2022-11-15T09:02:12;8.20;99.90
52321;DHT22;38261;54.090;13.382;2022-11-15T09:03:34;8.20;99.90
52321;DHT22;38261;54.090;13.382;2022-11-15T09:04:56;8.30;99.90
52321;DHT22;38261;54.090;13.382;2022-11-15T09:06:18;8.30;99.90
52321;DHT22;38261;54.090;13.382;2022-11-15T09:07:40;8.30;99.90
52321;DHT22;38261;54.090;13.382;2022-11-15T09:09:03;8.30;99.90
52321;DHT22;38261;54.090;13.382;2022-11-15T09:10:25;8.40;99.90
52321;DHT22;38261;54.090;13.382;2022-11-15T09:11:47;8.40;99.90
52321;DHT22;38261;54.090;13.382;2022-11-15T09:13:09;8.40;99.90
52321;DHT22;38261;54.090;13.382;2022-11-15T09:14:31;8.40;99.90
52321;DHT22;38261;54.090;13.382;2022-11-15T09:15:57;8.50;99.90